Time,TemperatureF,DewpointF,PressureIn,WindDirection,WindDirectionDegrees,WindSpeedMPH,WindSpeedGustMPH,Humidity,HourlyPrecipIn,Conditions,Clouds,dailyrainin,SoftwareType,DateUTC
2016-07-30 00:00:00,61.5,53.2,29.93,NW,326,0.0,0.0,74,0.00,,,0.00,meteobridge,2016-07-30 06:00:00,
2016-07-30 00:05:00,61.2,54.0,29.93,NW,326,0.0,0.0,77,0.00,,,0.00,meteobridge,2016-07-30 06:05:00,
2016-07-30 00:10:00,60.6,53.4,29.93,NW,326,0.0,0.0,77,0.00,,,0.00,meteobridge,2016-07-30 06:10:00,
2016-07-30 00:16:00,60.3,53.8,29.93,NW,326,0.0,0.0,79,0.00,,,0.00,meteobridge,2016-07-30 06:16:00,
2016-07-30 00:21:00,60.1,53.2,29.93,NW,326,0.0,0.0,78,0.00,,,0.00,meteobridge,2016-07-30 06:21:00,
2016-07-30 00:26:00,60.1,52.2,29.93,North,11,0.0,3.0,75,0.00,,,0.00,meteobridge,2016-07-30 06:26:00,
2016-07-30 00:31:00,61.0,52.0,29.93,NNE,32,0.0,1.0,72,0.00,,,0.00,meteobridge,2016-07-30 06:31:00,
2016-07-30 00:36:00,61.7,51.8,29.93,NE,39,0.0,4.0,70,0.00,,,0.00,meteobridge,2016-07-30 06:36:00,
2016-07-30 00:41:00,61.9,52.0,29.93,NE,39,0.0,0.0,70,0.00,,,0.00,meteobridge,2016-07-30 06:41:00,
2016-07-30 00:46:00,61.9,52.3,29.92,NE,39,0.0,0.0,71,0.00,,,0.00,meteobridge,2016-07-30 06:46:00,
2016-07-30 00:51:00,61.3,51.4,29.92,NE,39,0.0,0.0,70,0.00,,,0.00,meteobridge,2016-07-30 06:51:00,
2016-07-30 00:56:00,61.2,52.0,29.93,NE,39,0.0,0.0,72,0.00,,,0.00,meteobridge,2016-07-30 06:56:00,
2016-07-30 01:01:00,60.1,52.9,29.93,NE,39,0.0,0.0,77,0.00,,,0.00,meteobridge,2016-07-30 07:01:00,
2016-07-30 01:06:00,59.0,52.5,29.93,NE,39,0.0,0.0,79,0.00,,,0.00,meteobridge,2016-07-30 07:06:00,
2016-07-30 01:11:00,58.5,52.3,29.93,NE,39,0.0,0.0,80,0.00,,,0.00,meteobridge,2016-07-30 07:11:00,
2016-07-30 01:16:00,58.3,52.9,29.93,NE,39,0.0,0.0,82,0.00,,,0.00,meteobridge,2016-07-30 07:16:00,
2016-07-30 01:21:00,58.3,52.5,29.93,NE,39,0.0,0.0,81,0.00,,,0.00,meteobridge,2016-07-30 07:21:00,
2016-07-30 01:31:00,58.1,53.2,29.92,NE,39,0.0,0.0,84,0.00,,,0.00,meteobridge,2016-07-30 07:31:00,
2016-07-30 01:36:00,57.7,52.9,29.93,NE,39,0.0,0.0,84,0.00,,,0.00,meteobridge,2016-07-30 07:36:00,
2016-07-30 01:41:00,57.7,53.2,29.92,NE,39,0.0,0.0,85,0.00,,,0.00,meteobridge,2016-07-30 07:41:00,
2016-07-30 01:46:00,57.9,52.2,29.92,NE,39,0.0,0.0,81,0.00,,,0.00,meteobridge,2016-07-30 07:46:00,
2016-07-30 01:51:00,58.5,52.3,29.92,NE,39,0.0,0.0,80,0.00,,,0.00,meteobridge,2016-07-30 07:51:00,
2016-07-30 01:56:00,58.8,52.0,29.92,NE,39,0.0,0.0,78,0.00,,,0.00,meteobridge,2016-07-30 07:56:00,
2016-07-30 02:01:00,59.2,52.3,29.91,NE,39,0.0,0.0,78,0.00,,,0.00,meteobridge,2016-07-30 08:01:00,
2016-07-30 02:06:00,59.4,52.9,29.91,NE,39,0.0,0.0,79,0.00,,,0.00,meteobridge,2016-07-30 08:06:00,
2016-07-30 02:11:00,58.8,52.3,29.92,NE,41,0.0,0.0,79,0.00,,,0.00,meteobridge,2016-07-30 08:11:00,
2016-07-30 02:16:00,57.9,52.2,29.91,NE,38,0.0,0.0,81,0.00,,,0.00,meteobridge,2016-07-30 08:16:00,
2016-07-30 02:21:00,57.6,52.7,29.92,NE,38,0.0,0.0,84,0.00,,,0.00,meteobridge,2016-07-30 08:21:00,
2016-07-30 02:26:00,57.0,52.5,29.92,NE,38,0.0,0.0,85,0.00,,,0.00,meteobridge,2016-07-30 08:26:00,
2016-07-30 02:31:00,56.8,52.7,29.91,NE,38,0.0,0.0,86,0.00,,,0.00,meteobridge,2016-07-30 08:31:00,
2016-07-30 02:36:00,56.8,52.7,29.91,NE,38,0.0,0.0,86,0.00,,,0.00,meteobridge,2016-07-30 08:36:00,
2016-07-30 02:42:00,56.8,52.7,29.92,NE,38,0.0,0.0,86,0.00,,,0.00,meteobridge,2016-07-30 08:42:00,
2016-07-30 02:47:00,57.0,52.9,29.92,NW,313,0.0,0.0,86,0.00,,,0.00,meteobridge,2016-07-30 08:47:00,
2016-07-30 02:52:00,57.0,52.5,29.92,NW,313,0.0,0.0,85,0.00,,,0.00,meteobridge,2016-07-30 08:52:00,
2016-07-30 02:57:00,57.0,52.5,29.92,NW,313,0.0,0.0,85,0.00,,,0.00,meteobridge,2016-07-30 08:57:00,
2016-07-30 03:02:00,57.0,52.9,29.92,NW,318,0.0,0.0,86,0.00,,,0.00,meteobridge,2016-07-30 09:02:00,
2016-07-30 03:07:00,56.8,52.7,29.91,NW,319,0.0,0.0,86,0.00,,,0.00,meteobridge,2016-07-30 09:07:00,
2016-07-30 03:12:00,56.8,52.3,29.91,NNW,330,2.9,5.0,85,0.00,,,0.00,meteobridge,2016-07-30 09:12:00,
2016-07-30 03:17:00,57.2,52.3,29.91,NW,320,0.9,5.0,84,0.00,,,0.00,meteobridge,2016-07-30 09:17:00,
2016-07-30 03:22:00,57.4,52.3,29.91,NW,320,0.0,0.0,83,0.00,,,0.00,meteobridge,2016-07-30 09:22:00,
2016-07-30 03:27:00,57.6,52.5,29.91,NW,320,0.0,0.0,83,0.00,,,0.00,meteobridge,2016-07-30 09:27:00,
2016-07-30 03:32:00,57.0,51.6,29.91,NW,320,0.0,0.0,82,0.00,,,0.00,meteobridge,2016-07-30 09:32:00,
2016-07-30 03:37:00,56.7,51.8,29.91,NW,320,0.0,0.0,84,0.00,,,0.00,meteobridge,2016-07-30 09:37:00,
2016-07-30 03:42:00,56.5,52.0,29.90,NW,320,0.0,0.0,85,0.00,,,0.00,meteobridge,2016-07-30 09:42:00,
2016-07-30 03:47:00,56.5,52.0,29.90,NW,320,0.0,0.0,85,0.00,,,0.00,meteobridge,2016-07-30 09:47:00,
2016-07-30 03:52:00,56.3,51.4,29.90,NW,320,0.0,0.0,84,0.00,,,0.00,meteobridge,2016-07-30 09:52:00,
2016-07-30 03:57:00,56.5,51.6,29.90,NW,320,0.0,0.0,84,0.00,,,0.00,meteobridge,2016-07-30 09:57:00,
2016-07-30 04:02:00,56.5,51.6,29.90,NW,320,0.0,0.0,84,0.00,,,0.00,meteobridge,2016-07-30 10:02:00,
2016-07-30 04:07:00,56.5,51.6,29.90,NW,320,0.0,0.0,84,0.00,,,0.00,meteobridge,2016-07-30 10:07:00,
2016-07-30 04:12:00,55.9,50.5,29.90,NW,320,0.0,0.0,82,0.00,,,0.00,meteobridge,2016-07-30 10:12:00,
2016-07-30 04:17:00,55.2,50.2,29.90,NW,320,0.0,0.0,83,0.00,,,0.00,meteobridge,2016-07-30 10:17:00,
2016-07-30 04:22:00,55.0,50.9,29.90,NW,320,0.0,0.0,86,0.00,,,0.00,meteobridge,2016-07-30 10:22:00,
2016-07-30 04:27:00,55.2,51.1,29.90,NW,320,0.0,0.0,86,0.00,,,0.00,meteobridge,2016-07-30 10:27:00,
2016-07-30 04:33:00,55.6,51.4,29.90,NW,320,0.0,0.0,86,0.00,,,0.00,meteobridge,2016-07-30 10:33:00,
2016-07-30 04:38:00,55.8,51.3,29.90,NW,320,0.0,0.0,85,0.00,,,0.00,meteobridge,2016-07-30 10:38:00,
2016-07-30 04:43:00,55.8,51.3,29.90,NW,320,0.0,0.0,85,0.00,,,0.00,meteobridge,2016-07-30 10:43:00,
2016-07-30 04:48:00,55.2,50.5,29.89,NW,320,0.0,0.0,84,0.00,,,0.00,meteobridge,2016-07-30 10:48:00,
2016-07-30 04:53:00,55.0,51.3,29.89,NW,320,0.0,0.0,87,0.00,,,0.00,meteobridge,2016-07-30 10:53:00,
2016-07-30 04:58:00,55.2,51.4,29.90,NW,320,0.0,0.0,87,0.00,,,0.00,meteobridge,2016-07-30 10:58:00,
2016-07-30 05:03:00,55.6,51.4,29.89,NW,320,0.0,0.0,86,0.00,,,0.00,meteobridge,2016-07-30 11:03:00,
2016-07-30 05:08:00,55.6,51.4,29.89,NW,320,0.0,0.0,86,0.00,,,0.00,meteobridge,2016-07-30 11:08:00,
2016-07-30 05:13:00,55.4,50.9,29.89,NW,320,0.0,0.0,85,0.00,,,0.00,meteobridge,2016-07-30 11:13:00,
2016-07-30 05:18:00,55.2,50.7,29.90,NW,320,0.0,0.0,85,0.00,,,0.00,meteobridge,2016-07-30 11:18:00,
2016-07-30 05:23:00,54.9,51.1,29.89,NW,320,0.0,0.0,87,0.00,,,0.00,meteobridge,2016-07-30 11:23:00,
2016-07-30 05:28:00,54.7,51.3,29.89,NW,320,0.0,0.0,88,0.00,,,0.00,meteobridge,2016-07-30 11:28:00,
2016-07-30 05:33:00,54.3,50.9,29.89,NW,320,0.0,0.0,88,0.00,,,0.00,meteobridge,2016-07-30 11:33:00,
2016-07-30 05:38:00,54.1,50.7,29.89,NW,320,0.0,0.0,88,0.00,,,0.00,meteobridge,2016-07-30 11:38:00,
2016-07-30 05:43:00,54.1,50.9,29.89,NW,320,0.0,0.0,89,0.00,,,0.00,meteobridge,2016-07-30 11:43:00,
2016-07-30 05:48:00,54.1,50.9,29.89,NW,320,0.0,0.0,89,0.00,,,0.00,meteobridge,2016-07-30 11:48:00,
2016-07-30 05:53:00,53.4,49.6,29.89,NW,320,0.0,0.0,87,0.00,,,0.00,meteobridge,2016-07-30 11:53:00,
2016-07-30 05:58:00,53.2,49.8,29.89,NW,320,0.0,0.0,88,0.00,,,0.00,meteobridge,2016-07-30 11:58:00,
2016-07-30 06:03:00,53.1,49.8,29.90,NW,320,0.0,0.0,89,0.00,,,0.00,meteobridge,2016-07-30 12:03:00,
2016-07-30 06:08:00,53.1,50.2,29.89,NW,320,0.0,0.0,90,0.00,,,0.00,meteobridge,2016-07-30 12:08:00,
2016-07-30 06:13:00,52.9,49.6,29.89,NW,320,0.0,0.0,89,0.00,,,0.00,meteobridge,2016-07-30 12:13:00,
2016-07-30 06:19:00,52.7,49.5,29.89,NW,320,0.0,0.0,89,0.00,,,0.00,meteobridge,2016-07-30 12:19:00,
2016-07-30 06:24:00,52.7,49.8,29.89,NW,320,0.0,0.0,90,0.00,,,0.00,meteobridge,2016-07-30 12:24:00,
2016-07-30 06:29:00,53.1,50.5,29.89,NW,320,0.0,0.0,91,0.00,,,0.00,meteobridge,2016-07-30 12:29:00,
2016-07-30 06:34:00,53.4,50.5,29.89,NW,320,0.0,0.0,90,0.00,,,0.00,meteobridge,2016-07-30 12:34:00,
2016-07-30 06:39:00,53.6,50.7,29.89,NW,320,0.0,0.0,90,0.00,,,0.00,meteobridge,2016-07-30 12:39:00,
2016-07-30 06:44:00,53.8,50.5,29.90,NW,320,0.0,0.0,89,0.00,,,0.00,meteobridge,2016-07-30 12:44:00,
2016-07-30 06:49:00,54.0,51.1,29.90,NW,320,0.0,0.0,90,0.00,,,0.00,meteobridge,2016-07-30 12:49:00,
2016-07-30 06:54:00,54.3,51.4,29.90,NW,320,0.0,0.0,90,0.00,,,0.00,meteobridge,2016-07-30 12:54:00,
2016-07-30 06:59:00,55.0,51.6,29.89,NW,320,0.0,0.0,88,0.00,,,0.00,meteobridge,2016-07-30 12:59:00,
2016-07-30 07:04:00,55.2,51.4,29.90,NW,320,0.0,0.0,87,0.00,,,0.00,meteobridge,2016-07-30 13:04:00,
2016-07-30 07:09:00,55.6,51.8,29.90,NW,320,0.0,0.0,87,0.00,,,0.00,meteobridge,2016-07-30 13:09:00,
2016-07-30 07:14:00,55.8,51.6,29.90,NW,320,0.0,0.0,86,0.00,,,0.00,meteobridge,2016-07-30 13:14:00,
2016-07-30 07:19:00,56.5,52.3,29.90,NW,320,0.0,0.0,86,0.00,,,0.00,meteobridge,2016-07-30 13:19:00,
2016-07-30 07:24:00,57.0,52.2,29.90,NW,320,0.0,0.0,84,0.00,,,0.00,meteobridge,2016-07-30 13:24:00,
2016-07-30 07:29:00,57.7,52.9,29.90,NW,320,0.0,0.0,84,0.00,,,0.00,meteobridge,2016-07-30 13:29:00,
2016-07-30 07:34:00,58.5,53.2,29.90,NW,320,0.0,0.0,83,0.00,,,0.00,meteobridge,2016-07-30 13:34:00,
2016-07-30 07:39:00,59.7,53.6,29.90,NW,320,0.0,0.0,80,0.00,,,0.00,meteobridge,2016-07-30 13:39:00,
2016-07-30 07:44:00,61.2,54.0,29.89,NW,320,0.0,0.0,77,0.00,,,0.00,meteobridge,2016-07-30 13:44:00,
2016-07-30 07:49:00,61.7,54.1,29.89,NW,320,0.0,0.0,76,0.00,,,0.00,meteobridge,2016-07-30 13:49:00,
2016-07-30 07:54:00,62.2,54.5,29.89,NW,320,0.0,0.0,76,0.00,,,0.00,meteobridge,2016-07-30 13:54:00,
2016-07-30 07:59:00,62.8,54.3,29.89,NW,320,0.0,0.0,74,0.00,,,0.00,meteobridge,2016-07-30 13:59:00,
2016-07-30 08:04:00,63.1,53.6,29.89,NW,320,0.0,0.0,71,0.00,,,0.00,meteobridge,2016-07-30 14:04:00,
2016-07-30 08:09:00,63.3,54.9,29.89,NW,320,0.0,0.0,74,0.00,,,0.00,meteobridge,2016-07-30 14:09:00,
2016-07-30 08:14:00,63.5,54.0,29.88,NW,320,0.0,0.0,71,0.00,,,0.00,meteobridge,2016-07-30 14:14:00,
2016-07-30 08:20:00,63.7,54.5,29.89,NW,320,0.0,0.0,72,0.00,,,0.00,meteobridge,2016-07-30 14:20:00,
2016-07-30 08:25:00,64.0,54.1,29.89,NW,320,0.0,0.0,70,0.00,,,0.00,meteobridge,2016-07-30 14:25:00,
2016-07-30 08:30:00,64.2,53.8,29.89,NW,320,0.0,0.0,69,0.00,,,0.00,meteobridge,2016-07-30 14:30:00,
2016-07-30 08:35:00,64.9,54.5,29.88,NW,320,0.0,0.0,69,0.00,,,0.00,meteobridge,2016-07-30 14:35:00,
2016-07-30 08:40:00,65.8,54.5,29.88,NW,319,0.0,0.0,67,0.00,,,0.00,meteobridge,2016-07-30 14:40:00,
2016-07-30 08:45:00,66.0,55.6,29.88,WNW,285,0.0,0.0,69,0.00,,,0.00,meteobridge,2016-07-30 14:45:00,
2016-07-30 08:50:00,66.4,55.6,29.88,WSW,248,0.0,0.0,68,0.00,,,0.00,meteobridge,2016-07-30 14:50:00,
2016-07-30 08:55:00,66.7,55.4,29.88,WSW,246,0.0,0.0,67,0.00,,,0.00,meteobridge,2016-07-30 14:55:00,
2016-07-30 09:00:00,67.3,55.9,29.88,WSW,244,0.0,0.0,67,0.00,,,0.00,meteobridge,2016-07-30 15:00:00,
2016-07-30 09:05:00,67.8,55.6,29.88,SSW,200,0.0,0.0,65,0.00,,,0.00,meteobridge,2016-07-30 15:05:00,
2016-07-30 09:10:00,68.4,56.1,29.88,SSW,198,0.0,0.0,65,0.00,,,0.00,meteobridge,2016-07-30 15:10:00,
2016-07-30 09:15:00,69.1,57.2,29.88,SSW,197,0.0,0.0,66,0.00,,,0.00,meteobridge,2016-07-30 15:15:00,
2016-07-30 09:20:00,69.6,55.6,29.88,SSW,196,0.0,3.0,61,0.00,,,0.00,meteobridge,2016-07-30 15:20:00,
2016-07-30 09:25:00,70.0,57.2,29.87,SSW,196,0.9,3.0,64,0.00,,,0.00,meteobridge,2016-07-30 15:25:00,
2016-07-30 09:30:00,70.3,55.8,29.87,SSE,159,4.0,6.0,60,0.00,,,0.00,meteobridge,2016-07-30 15:30:00,
2016-07-30 09:35:00,70.9,57.7,29.87,SSE,158,0.0,3.0,63,0.00,,,0.00,meteobridge,2016-07-30 15:35:00,
2016-07-30 09:40:00,71.4,58.1,29.86,SW,217,0.0,0.0,63,0.00,,,0.00,meteobridge,2016-07-30 15:40:00,
2016-07-30 09:45:00,72.1,57.0,29.86,SW,217,0.0,0.0,59,0.00,,,0.00,meteobridge,2016-07-30 15:45:00,
2016-07-30 09:50:00,72.7,56.1,29.86,WSW,244,0.0,3.0,56,0.00,,,0.00,meteobridge,2016-07-30 15:50:00,
2016-07-30 09:55:00,73.4,57.2,29.86,South,178,2.0,3.0,57,0.00,,,0.00,meteobridge,2016-07-30 15:55:00,
2016-07-30 10:00:00,73.9,57.2,29.86,South,178,0.0,1.0,56,0.00,,,0.00,meteobridge,2016-07-30 16:00:00,
2016-07-30 10:05:00,74.5,57.7,29.86,South,169,0.0,0.0,56,0.00,,,0.00,meteobridge,2016-07-30 16:05:00,
2016-07-30 10:10:00,74.8,56.5,29.85,SSW,195,0.0,4.0,53,0.00,,,0.00,meteobridge,2016-07-30 16:10:00,
2016-07-30 10:15:00,75.0,56.1,29.85,SW,223,0.0,0.0,52,0.00,,,0.00,meteobridge,2016-07-30 16:15:00,
2016-07-30 10:20:00,75.6,56.7,29.85,SSE,160,2.0,7.0,52,0.00,,,0.00,meteobridge,2016-07-30 16:20:00,
2016-07-30 10:25:00,76.1,57.2,29.85,SSE,148,0.0,2.0,52,0.00,,,0.00,meteobridge,2016-07-30 16:25:00,
2016-07-30 10:30:00,76.6,58.8,29.85,South,173,0.9,7.0,54,0.00,,,0.00,meteobridge,2016-07-30 16:30:00,
2016-07-30 10:35:00,76.8,56.8,29.84,SSE,157,2.9,3.0,50,0.00,,,0.00,meteobridge,2016-07-30 16:35:00,
2016-07-30 10:40:00,77.5,57.9,29.84,SSW,199,0.0,4.0,51,0.00,,,0.00,meteobridge,2016-07-30 16:40:00,
2016-07-30 10:45:00,78.1,56.3,29.84,South,178,0.0,6.0,47,0.00,,,0.00,meteobridge,2016-07-30 16:45:00,
2016-07-30 10:50:00,78.6,57.2,29.84,South,172,0.9,5.0,48,0.00,,,0.00,meteobridge,2016-07-30 16:50:00,
2016-07-30 10:55:00,79.0,57.0,29.84,SSE,155,0.0,6.0,47,0.00,,,0.00,meteobridge,2016-07-30 16:55:00,
2016-07-30 11:00:00,79.3,56.1,29.83,SSW,195,2.0,6.0,45,0.00,,,0.00,meteobridge,2016-07-30 17:00:00,
2016-07-30 11:05:00,79.9,55.4,29.83,SSE,157,2.0,6.0,43,0.00,,,0.00,meteobridge,2016-07-30 17:05:00,
2016-07-30 11:11:00,80.4,55.9,29.83,SSE,155,2.9,6.0,43,0.00,,,0.00,meteobridge,2016-07-30 17:11:00,
2016-07-30 11:16:00,80.8,55.6,29.83,SSE,159,0.0,5.0,42,0.00,,,0.00,meteobridge,2016-07-30 17:16:00,
2016-07-30 11:21:00,81.1,55.9,29.83,South,170,4.0,6.0,42,0.00,,,0.00,meteobridge,2016-07-30 17:21:00,
2016-07-30 11:26:00,81.9,53.8,29.83,SE,145,0.9,6.0,38,0.00,,,0.00,meteobridge,2016-07-30 17:26:00,
2016-07-30 11:31:00,82.0,54.7,29.83,SSE,166,2.9,8.0,39,0.00,,,0.00,meteobridge,2016-07-30 17:31:00,
2016-07-30 11:36:00,82.2,53.4,29.83,South,191,6.9,9.0,37,0.00,,,0.00,meteobridge,2016-07-30 17:36:00,
2016-07-30 11:41:00,82.9,54.0,29.83,SSE,163,4.9,8.0,37,0.00,,,0.00,meteobridge,2016-07-30 17:41:00,
2016-07-30 11:46:00,83.5,53.8,29.82,WSW,244,0.9,8.0,36,0.00,,,0.00,meteobridge,2016-07-30 17:46:00,
2016-07-30 11:51:00,83.7,54.0,29.82,SSE,150,0.0,6.0,36,0.00,,,0.00,meteobridge,2016-07-30 17:51:00,
2016-07-30 11:56:00,84.4,52.9,29.82,SSW,198,6.0,11.0,34,0.00,,,0.00,meteobridge,2016-07-30 17:56:00,
2016-07-30 12:01:00,84.7,49.8,29.81,SSE,153,2.9,7.0,30,0.00,,,0.00,meteobridge,2016-07-30 18:01:00,
2016-07-30 12:06:00,84.9,50.0,29.81,South,180,6.0,11.0,30,0.00,,,0.00,meteobridge,2016-07-30 18:06:00,
2016-07-30 12:11:00,85.3,52.2,29.80,SE,134,8.1,12.0,32,0.00,,,0.00,meteobridge,2016-07-30 18:11:00,
2016-07-30 12:16:00,86.2,51.1,29.80,SSE,164,4.0,9.0,30,0.00,,,0.00,meteobridge,2016-07-30 18:16:00,
2016-07-30 12:21:00,86.7,48.7,29.80,WSW,237,4.9,10.0,27,0.00,,,0.00,meteobridge,2016-07-30 18:21:00,
2016-07-30 12:26:00,86.9,47.8,29.80,South,187,8.9,14.0,26,0.00,,,0.00,meteobridge,2016-07-30 18:26:00,
2016-07-30 12:31:00,87.3,46.0,29.80,SW,223,12.1,16.0,24,0.00,,,0.00,meteobridge,2016-07-30 18:31:00,
2016-07-30 12:36:00,87.6,46.4,29.80,South,173,6.9,13.0,24,0.00,,,0.00,meteobridge,2016-07-30 18:36:00,
2016-07-30 12:41:00,87.6,48.6,29.80,South,170,6.9,8.0,26,0.00,,,0.00,meteobridge,2016-07-30 18:41:00,
2016-07-30 12:46:00,88.3,45.9,29.80,SSW,205,12.1,19.0,23,0.00,,,0.00,meteobridge,2016-07-30 18:46:00,
2016-07-30 12:51:00,88.5,48.2,29.80,West,281,14.1,14.1,25,0.00,,,0.00,meteobridge,2016-07-30 18:51:00,
2016-07-30 12:56:00,89.1,45.3,29.80,WSW,239,6.0,13.0,22,0.00,,,0.00,meteobridge,2016-07-30 18:56:00,
2016-07-30 13:01:00,88.5,48.2,29.80,WSW,248,2.9,13.0,25,0.00,,,0.00,meteobridge,2016-07-30 19:01:00,
2016-07-30 13:06:00,88.9,48.6,29.79,West,265,12.1,13.0,25,0.00,,,0.00,meteobridge,2016-07-30 19:06:00,
2016-07-30 13:11:00,89.2,45.5,29.79,WSW,253,13.0,16.0,22,0.00,,,0.00,meteobridge,2016-07-30 19:11:00,
2016-07-30 13:16:00,89.8,42.1,29.79,WSW,257,13.0,18.0,19,0.00,,,0.00,meteobridge,2016-07-30 19:16:00,
2016-07-30 13:21:00,90.0,44.8,29.79,WSW,238,13.0,13.0,21,0.00,,,0.00,meteobridge,2016-07-30 19:21:00,
2016-07-30 13:26:00,89.8,43.3,29.79,SW,236,4.9,17.0,20,0.00,,,0.00,meteobridge,2016-07-30 19:26:00,
2016-07-30 13:31:00,90.0,42.3,29.78,SSW,196,8.1,15.0,19,0.00,,,0.00,meteobridge,2016-07-30 19:31:00,
2016-07-30 13:36:00,90.1,43.7,29.78,SW,221,16.1,16.1,20,0.00,,,0.00,meteobridge,2016-07-30 19:36:00,
2016-07-30 13:41:00,90.3,46.4,29.78,WSW,242,4.9,12.0,22,0.00,,,0.00,meteobridge,2016-07-30 19:41:00,
2016-07-30 13:47:00,90.3,42.4,29.78,WSW,242,2.9,10.0,19,0.00,,,0.00,meteobridge,2016-07-30 19:47:00,
2016-07-30 13:52:00,90.3,43.9,29.77,SSW,198,8.9,11.0,20,0.00,,,0.00,meteobridge,2016-07-30 19:52:00,
2016-07-30 13:56:00,90.3,45.1,29.77,SSW,207,16.1,16.1,21,0.00,,,0.00,meteobridge,2016-07-30 19:56:00,
2016-07-30 14:01:00,90.7,42.8,29.77,WSW,257,13.0,18.0,19,0.00,,,0.00,meteobridge,2016-07-30 20:01:00,
2016-07-30 14:07:00,90.7,39.9,29.77,South,183,6.9,11.0,17,0.00,,,0.00,meteobridge,2016-07-30 20:07:00,
2016-07-30 14:12:00,90.3,41.0,29.77,WSW,244,16.0,16.0,18,0.00,,,0.00,meteobridge,2016-07-30 20:12:00,
2016-07-30 14:17:00,90.3,43.9,29.76,SSW,201,6.0,7.0,20,0.00,,,0.00,meteobridge,2016-07-30 20:17:00,
2016-07-30 14:22:00,90.3,42.4,29.76,SW,226,2.9,3.0,19,0.00,,,0.00,meteobridge,2016-07-30 20:22:00,
2016-07-30 14:27:00,90.9,41.5,29.76,SSW,202,10.1,15.0,18,0.00,,,0.00,meteobridge,2016-07-30 20:27:00,
2016-07-30 14:32:00,91.8,43.7,29.76,WSW,248,8.9,11.0,19,0.00,,,0.00,meteobridge,2016-07-30 20:32:00,
2016-07-30 14:37:00,92.1,42.4,29.75,SW,219,6.0,13.0,18,0.00,,,0.00,meteobridge,2016-07-30 20:37:00,
2016-07-30 14:42:00,92.1,42.4,29.75,SSW,205,6.9,13.0,18,0.00,,,0.00,meteobridge,2016-07-30 20:42:00,
2016-07-30 14:47:00,92.1,42.4,29.75,SSW,205,6.0,8.0,18,0.00,,,0.00,meteobridge,2016-07-30 20:47:00,
2016-07-30 14:52:00,92.3,44.1,29.75,WSW,250,8.1,9.0,19,0.00,,,0.00,meteobridge,2016-07-30 20:52:00,
2016-07-30 14:57:00,92.1,41.0,29.74,SW,225,8.1,16.0,17,0.00,,,0.00,meteobridge,2016-07-30 20:57:00,
2016-07-30 15:02:00,92.1,43.9,29.74,SSE,164,6.0,10.0,19,0.00,,,0.00,meteobridge,2016-07-30 21:02:00,
2016-07-30 15:07:00,92.5,42.8,29.74,SSE,159,4.0,10.0,18,0.00,,,0.00,meteobridge,2016-07-30 21:07:00,
2016-07-30 15:12:00,92.7,41.5,29.74,South,184,11.0,14.0,17,0.00,,,0.00,meteobridge,2016-07-30 21:12:00,
2016-07-30 15:17:00,92.5,42.8,29.73,SSW,198,8.1,15.0,18,0.00,,,0.00,meteobridge,2016-07-30 21:17:00,
2016-07-30 15:22:00,92.8,43.2,29.73,SSW,200,6.0,9.0,18,0.00,,,0.00,meteobridge,2016-07-30 21:22:00,
2016-07-30 15:27:00,92.8,43.2,29.73,WSW,250,6.9,12.0,18,0.00,,,0.00,meteobridge,2016-07-30 21:27:00,
2016-07-30 15:32:00,92.5,41.4,29.72,SSW,207,6.0,11.0,17,0.00,,,0.00,meteobridge,2016-07-30 21:32:00,
2016-07-30 15:37:00,92.1,42.4,29.72,SW,230,4.0,9.0,18,0.00,,,0.00,meteobridge,2016-07-30 21:37:00,
2016-07-30 15:42:00,91.2,41.7,29.72,South,178,2.0,7.0,18,0.00,,,0.00,meteobridge,2016-07-30 21:42:00,
2016-07-30 15:47:00,90.9,40.1,29.72,SE,146,4.0,6.0,17,0.00,,,0.00,meteobridge,2016-07-30 21:47:00,
2016-07-30 15:53:00,90.9,41.5,29.72,SSW,204,2.9,6.0,18,0.00,,,0.00,meteobridge,2016-07-30 21:53:00,
2016-07-30 15:58:00,90.9,43.0,29.71,SSE,163,6.0,10.0,19,0.00,,,0.00,meteobridge,2016-07-30 21:58:00,
2016-07-30 16:03:00,90.5,42.6,29.71,SE,144,4.9,8.0,19,0.00,,,0.00,meteobridge,2016-07-30 22:03:00,
2016-07-30 16:08:00,90.3,42.4,29.71,SSE,157,0.0,3.0,19,0.00,,,0.00,meteobridge,2016-07-30 22:08:00,
2016-07-30 16:13:00,91.0,45.7,29.70,ENE,74,2.9,6.0,21,0.00,,,0.00,meteobridge,2016-07-30 22:13:00,
2016-07-30 16:18:00,91.8,42.3,29.70,SE,136,4.0,6.0,18,0.00,,,0.00,meteobridge,2016-07-30 22:18:00,
2016-07-30 16:23:00,92.7,38.3,29.70,SW,232,11.0,13.0,15,0.00,,,0.00,meteobridge,2016-07-30 22:23:00,
2016-07-30 16:28:00,93.7,39.2,29.70,WSW,251,6.9,14.0,15,0.00,,,0.00,meteobridge,2016-07-30 22:28:00,
2016-07-30 16:33:00,93.9,35.6,29.69,WNW,294,16.1,19.0,13,0.00,,,0.00,meteobridge,2016-07-30 22:33:00,
2016-07-30 16:38:00,94.3,29.3,29.70,West,261,10.1,15.0,10,0.00,,,0.00,meteobridge,2016-07-30 22:38:00,
2016-07-30 16:43:00,93.7,28.9,29.70,WNW,302,11.0,19.0,10,0.00,,,0.00,meteobridge,2016-07-30 22:43:00,
2016-07-30 16:48:00,93.6,31.1,29.70,WSW,251,10.1,23.0,11,0.00,,,0.00,meteobridge,2016-07-30 22:48:00,
2016-07-30 16:53:00,93.6,31.1,29.70,WSW,253,4.0,8.0,11,0.00,,,0.00,meteobridge,2016-07-30 22:53:00,
2016-07-30 16:58:00,93.7,31.3,29.70,West,275,6.9,11.0,11,0.00,,,0.00,meteobridge,2016-07-30 22:58:00,
2016-07-30 17:03:00,93.7,31.3,29.70,WSW,254,15.0,15.0,11,0.00,,,0.00,meteobridge,2016-07-30 23:03:00,
2016-07-30 17:08:00,93.4,31.1,29.69,West,273,6.9,14.0,11,0.00,,,0.00,meteobridge,2016-07-30 23:08:00,
2016-07-30 17:13:00,93.4,33.3,29.69,West,279,11.0,13.0,12,0.00,,,0.00,meteobridge,2016-07-30 23:13:00,
2016-07-30 17:18:00,93.4,31.1,29.69,West,271,2.9,11.0,11,0.00,,,0.00,meteobridge,2016-07-30 23:18:00,
2016-07-30 17:23:00,93.6,33.3,29.69,West,281,13.0,13.0,12,0.00,,,0.00,meteobridge,2016-07-30 23:23:00,
2016-07-30 17:28:00,93.6,33.3,29.68,WSW,258,6.9,17.0,12,0.00,,,0.00,meteobridge,2016-07-30 23:28:00,
2016-07-30 17:33:00,93.6,33.3,29.68,WSW,250,4.9,13.0,12,0.00,,,0.00,meteobridge,2016-07-30 23:33:00,
2016-07-30 17:38:00,93.7,33.4,29.68,West,281,4.0,11.0,12,0.00,,,0.00,meteobridge,2016-07-30 23:38:00,
2016-07-30 17:44:00,93.7,35.4,29.68,West,263,12.1,13.0,13,0.00,,,0.00,meteobridge,2016-07-30 23:44:00,
2016-07-30 17:49:00,93.2,33.1,29.68,West,266,6.0,14.0,12,0.00,,,0.00,meteobridge,2016-07-30 23:49:00,
2016-07-30 17:54:00,92.5,32.5,29.68,WSW,253,6.9,12.0,12,0.00,,,0.00,meteobridge,2016-07-30 23:54:00,
2016-07-30 17:59:00,92.7,32.7,29.68,West,281,8.1,15.0,12,0.00,,,0.00,meteobridge,2016-07-30 23:59:00,
2016-07-30 18:04:00,92.8,36.7,29.68,West,275,2.0,12.0,14,0.00,,,0.00,meteobridge,2016-07-31 00:04:00,
2016-07-30 18:09:00,92.8,40.1,29.69,SW,220,8.9,17.0,16,0.00,,,0.00,meteobridge,2016-07-31 00:09:00,
2016-07-30 18:14:00,91.8,40.8,29.68,SW,234,11.0,16.0,17,0.00,,,0.00,meteobridge,2016-07-31 00:14:00,
2016-07-30 18:19:00,91.2,41.7,29.68,SSW,197,8.1,17.0,18,0.00,,,0.00,meteobridge,2016-07-31 00:19:00,
2016-07-30 18:24:00,91.0,41.7,29.68,WSW,241,10.1,16.0,18,0.00,,,0.00,meteobridge,2016-07-31 00:24:00,